Time;durP1;ratioP1;P1;durP2;ratioP2;P2;SDS_P1;SDS_P2;PMS_P1;PMS_P2;Temp;Humidity;BMP_temperature;BMP_pressure;BME280_temperature;BME280_humidity;BME280_pressure;Samples;Min_cycle;Max_cycle;Signal;HPM_P1;HPM_P2
2023/07/20 00:01:15;;;;;;;4.00;3.60;;;15.00;99.90;;;;;;5006029;28;20412;-89
2023/07/20 00:03:41;;;;;;;5.13;4.63;;;15.10;99.90;;;;;;4988777;28;20449;-89
2023/07/20 00:06:07;;;;;;;6.20;4.43;;;14.80;99.90;;;;;;4989694;28;20416;-88
2023/07/20 00:08:33;;;;;;;5.07;4.57;;;15.10;99.90;;;;;;4992822;28;20408;-90
2023/07/20 00:10:59;;;;;;;4.47;4.00;;;14.80;99.90;;;;;;5009521;28;20423;-89
2023/07/20 00:13:24;;;;;;;4.37;3.53;;;14.50;99.90;;;;;;4992983;28;20908;-90
2023/07/20 00:15:52;;;;;;;5.82;4.47;;;14.40;99.90;;;;;;4992772;28;20851;-89
2023/07/20 00:18:21;;;;;;;5.75;4.63;;;14.60;99.90;;;;;;4993323;28;20521;-89
2023/07/20 00:20:47;;;;;;;4.25;3.75;;;14.40;99.90;;;;;;4992453;28;20435;-89
2023/07/20 00:23:12;;;;;;;4.82;3.28;;;14.10;99.90;;;;;;4993141;28;20768;-89
2023/07/20 00:25:38;;;;;;;4.35;3.95;;;14.30;99.90;;;;;;4992494;28;20419;-89
2023/07/20 00:28:04;;;;;;;4.23;3.10;;;14.20;99.90;;;;;;4992964;28;20411;-89
2023/07/20 00:30:30;;;;;;;4.93;3.60;;;13.90;99.90;;;;;;4992293;28;20493;-89
2023/07/20 00:32:55;;;;;;;4.18;3.72;;;13.90;99.90;;;;;;4993095;28;20425;-89
2023/07/20 00:35:21;;;;;;;5.13;3.67;;;13.80;99.90;;;;;;4992687;28;20892;-89
2023/07/20 00:37:47;;;;;;;5.28;4.40;;;14.30;99.90;;;;;;4992484;28;20451;-88
2023/07/20 00:40:13;;;;;;;4.63;3.65;;;13.70;99.90;;;;;;4993463;28;20451;-88
2023/07/20 00:42:39;;;;;;;5.35;3.78;;;13.70;99.90;;;;;;5008642;28;20462;-88
2023/07/20 00:45:05;;;;;;;4.38;3.20;;;13.90;99.90;;;;;;4992510;28;20502;-87
2023/07/20 00:47:32;;;;;;;5.15;2.97;;;13.50;99.90;;;;;;4992111;28;20424;-88
2023/07/20 00:49:58;;;;;;;6.55;3.03;;;14.10;99.90;;;;;;5009173;28;20515;-89
2023/07/20 00:52:26;;;;;;;9.57;5.18;;;13.60;99.90;;;;;;4998874;28;20421;-88
2023/07/20 00:54:56;;;;;;;4.50;3.70;;;13.40;99.90;;;;;;5014582;28;20461;-88
2023/07/20 00:57:22;;;;;;;5.03;3.90;;;13.60;99.90;;;;;;5031835;28;20432;-88
2023/07/20 00:59:48;;;;;;;3.50;3.10;;;13.30;99.90;;;;;;5014743;28;20389;-89
2023/07/20 01:02:14;;;;;;;3.70;3.40;;;13.20;99.90;;;;;;5015928;28;20412;-89
2023/07/20 01:04:39;;;;;;;4.53;3.67;;;13.20;99.90;;;;;;5003413;28;20421;-87
2023/07/20 01:07:18;;;;;;;3.97;3.50;;;13.20;99.90;;;;;;4992178;28;20933;-90
2023/07/20 01:10:02;;;;;;;4.00;3.60;;;13.00;99.90;;;;;;4992096;28;20452;-88
2023/07/20 01:12:38;;;;;;;5.32;4.80;;;13.30;99.90;;;;;;4991588;28;20457;-88
2023/07/20 01:15:04;;;;;;;65.40;6.03;;;13.00;99.90;;;;;;4992445;28;20890;-89
2023/07/20 01:17:30;;;;;;;5.88;3.42;;;12.90;99.90;;;;;;4990900;28;20571;-89
2023/07/20 01:19:56;;;;;;;21.50;6.00;;;12.90;99.90;;;;;;5007561;28;20436;-88
2023/07/20 01:22:34;;;;;;;3.45;3.00;;;13.20;99.90;;;;;;4991714;28;20459;-89
2023/07/20 01:25:22;;;;;;;5.05;2.90;;;12.90;99.90;;;;;;4991923;28;20416;-88
2023/07/20 01:28:09;;;;;;;5.00;3.75;;;12.70;99.90;;;;;;4992253;28;20413;-90
2023/07/20 01:30:59;;;;;;;6.45;4.72;;;12.70;99.90;;;;;;4991351;28;20417;-89
2023/07/20 01:33:26;;;;;;;5.00;4.50;;;12.60;99.90;;;;;;4991774;28;20421;-89
2023/07/20 01:35:57;;;;;;;5.10;4.60;;;12.60;99.90;;;;;;4991885;28;20416;-88
2023/07/20 01:38:24;;;;;;;7.30;6.00;;;12.60;99.90;;;;;;4991407;28;20541;-87
2023/07/20 01:40:51;;;;;;;7.95;6.38;;;12.50;99.90;;;;;;4992149;28;20952;-88
2023/07/20 01:43:17;;;;;;;6.82;6.00;;;12.80;99.90;;;;;;4990934;28;20460;-88
2023/07/20 01:45:43;;;;;;;4.18;3.55;;;12.40;99.90;;;;;;4991641;28;20511;-88
2023/07/20 01:48:09;;;;;;;3.65;3.30;;;12.70;99.90;;;;;;4991164;28;20900;-88
2023/07/20 01:50:35;;;;;;;7.55;5.45;;;12.70;99.90;;;;;;4991234;28;20733;-88
2023/07/20 01:53:01;;;;;;;6.05;5.45;;;12.70;99.90;;;;;;5007792;28;20822;-88
2023/07/20 01:55:27;;;;;;;5.30;3.95;;;12.30;99.90;;;;;;4990706;28;20401;-89
2023/07/20 01:57:53;;;;;;;4.55;3.65;;;12.30;99.90;;;;;;4991295;28;20431;-88
2023/07/20 02:00:21;;;;;;;4.07;3.43;;;12.60;99.90;;;;;;4990998;28;20943;-88
2023/07/20 02:02:47;;;;;;;4.33;3.67;;;12.20;99.90;;;;;;5007720;28;20436;-89
2023/07/20 02:05:12;;;;;;;7.22;4.72;;;12.20;99.90;;;;;;5006778;28;20412;-88
2023/07/20 02:07:39;;;;;;;5.25;4.75;;;12.50;99.90;;;;;;4990906;28;20887;-88
2023/07/20 02:10:05;;;;;;;5.90;5.15;;;12.10;99.90;;;;;;4990714;28;20819;-88
2023/07/20 02:12:31;;;;;;;5.70;4.57;;;12.10;99.90;;;;;;5007266;28;20769;-87
2023/07/20 02:14:57;;;;;;;4.53;4.13;;;12.30;99.90;;;;;;4990605;28;20401;-88
2023/07/20 02:17:22;;;;;;;5.22;4.82;;;12.00;99.90;;;;;;4990071;28;20421;-88
2023/07/20 02:19:52;;;;;;;6.25;4.78;;;12.00;99.90;;;;;;4991238;28;20417;-88
2023/07/20 02:22:18;;;;;;;4.97;4.47;;;11.90;99.90;;;;;;4990188;28;20773;-88
2023/07/20 02:24:43;;;;;;;5.63;4.80;;;11.80;99.90;;;;;;4990661;28;20463;-87
2023/07/20 02:27:09;;;;;;;4.20;3.80;;;11.90;99.90;;;;;;5006306;28;20409;-88
2023/07/20 02:29:35;;;;;;;5.40;4.68;;;12.00;99.90;;;;;;4989977;28;20906;-89
2023/07/20 02:32:01;;;;;;;6.07;5.47;;;11.80;99.90;;;;;;4990250;28;20959;-87
2023/07/20 02:34:27;;;;;;;4.75;4.35;;;11.70;99.90;;;;;;4989942;28;20599;-88
2023/07/20 02:36:56;;;;;;;4.35;4.03;;;11.90;99.90;;;;;;5006758;28;20523;-88
2023/07/20 02:39:21;;;;;;;4.70;4.30;;;11.60;99.90;;;;;;5005707;28;20409;-88
2023/07/20 02:41:47;;;;;;;8.23;4.87;;;11.60;99.90;;;;;;5006271;28;20492;-89
2023/07/20 02:44:14;;;;;;;14.73;6.57;;;11.90;99.90;;;;;;5006122;28;20925;-88
2023/07/20 02:46:40;;;;;;;7.18;4.35;;;12.00;99.90;;;;;;5006198;28;20416;-88
2023/07/20 02:49:06;;;;;;;4.88;4.35;;;11.50;99.90;;;;;;5005918;28;20416;-87
2023/07/20 02:51:31;;;;;;;5.13;4.38;;;11.70;99.90;;;;;;5006940;28;20405;-88
2023/07/20 02:53:57;;;;;;;4.63;4.23;;;11.60;99.90;;;;;;4990194;28;20421;-88
2023/07/20 02:56:23;;;;;;;4.65;4.03;;;11.50;99.90;;;;;;4988786;28;20417;-89
2023/07/20 02:58:50;;;;;;;4.63;3.73;;;11.80;99.90;;;;;;4989492;28;20475;-88
2023/07/20 03:01:15;;;;;;;4.20;3.88;;;11.40;99.90;;;;;;5005165;28;20432;-87
2023/07/20 03:03:46;;;;;;;4.68;3.72;;;11.60;99.90;;;;;;5005708;28;20503;-88
2023/07/20 03:06:13;;;;;;;3.60;2.87;;;11.50;99.90;;;;;;4988834;28;20415;-87
2023/07/20 03:08:38;;;;;;;4.70;2.83;;;11.60;99.90;;;;;;4989214;28;20413;-88
2023/07/20 03:11:04;;;;;;;4.80;3.58;;;11.60;99.90;;;;;;5005646;28;20524;-86
2023/07/20 03:13:30;;;;;;;3.57;2.90;;;11.30;99.90;;;;;;4988721;28;20425;-88
2023/07/20 03:15:55;;;;;;;41.92;7.68;;;11.30;99.90;;;;;;4989483;28;20497;-87
2023/07/20 03:18:21;;;;;;;133.43;9.00;;;11.90;99.90;;;;;;5004671;28;20444;-88
2023/07/20 03:20:48;;;;;;;6.80;4.87;;;11.20;99.90;;;;;;5005486;28;20456;-88
2023/07/20 03:23:15;;;;;;;3.03;2.72;;;11.20;99.90;;;;;;4988772;28;20967;-88
2023/07/20 03:25:41;;;;;;;3.35;2.20;;;11.10;99.90;;;;;;5005576;28;20412;-87
2023/07/20 03:28:07;;;;;;;2.85;2.65;;;11.10;99.90;;;;;;4989036;28;20425;-87
2023/07/20 03:30:33;;;;;;;4.15;3.40;;;11.10;99.90;;;;;;5004743;28;20412;-88
2023/07/20 03:32:58;;;;;;;5.90;3.95;;;11.40;99.90;;;;;;5005727;28;20405;-88
2023/07/20 03:35:24;;;;;;;6.35;2.55;;;11.30;99.90;;;;;;4988447;28;20888;-88
2023/07/20 03:37:50;;;;;;;5.83;3.80;;;11.00;99.90;;;;;;4989121;28;20999;-87
2023/07/20 03:40:16;;;;;;;3.80;2.53;;;11.50;99.90;;;;;;4988542;28;20495;-89
2023/07/20 03:42:42;;;;;;;2.90;2.38;;;11.00;99.90;;;;;;4988307;28;20413;-87
2023/07/20 03:45:08;;;;;;;2.60;2.20;;;11.20;99.90;;;;;;4989020;28;20427;-87
2023/07/20 03:47:33;;;;;;;4.35;2.55;;;11.00;99.90;;;;;;4988924;28;20420;-89
2023/07/20 03:50:00;;;;;;;3.57;2.00;;;11.10;99.90;;;;;;5006043;28;20502;-88
2023/07/20 03:52:25;;;;;;;4.70;2.77;;;11.00;99.90;;;;;;4989402;28;20976;-87
2023/07/20 03:54:51;;;;;;;3.70;2.15;;;11.10;99.90;;;;;;4989870;28;20412;-89
2023/07/20 03:57:17;;;;;;;5.45;4.25;;;11.00;99.90;;;;;;5005213;28;20440;-89
2023/07/20 03:59:46;;;;;;;4.88;3.50;;;11.00;99.90;;;;;;4989512;28;20475;-90
2023/07/20 04:02:12;;;;;;;4.43;3.27;;;11.00;99.90;;;;;;4989841;28;20842;-88
2023/07/20 04:04:37;;;;;;;5.35;4.18;;;11.50;99.90;;;;;;4989813;28;20412;-89
2023/07/20 04:07:03;;;;;;;4.75;4.20;;;11.00;99.90;;;;;;4989743;28;20420;-88
2023/07/20 04:09:31;;;;;;;4.22;3.47;;;11.00;99.90;;;;;;4992502;28;20426;-89
2023/07/20 04:11:57;;;;;;;4.80;3.53;;;11.10;99.90;;;;;;5009450;28;20417;-88
2023/07/20 04:14:22;;;;;;;6.33;4.90;;;11.30;99.90;;;;;;4992350;28;20426;-90
2023/07/20 04:16:48;;;;;;;6.32;4.95;;;11.00;99.90;;;;;;5026666;28;20544;-89
2023/07/20 04:19:14;;;;;;;4.57;3.90;;;11.70;99.90;;;;;;4992409;28;20399;-90
2023/07/20 04:21:43;;;;;;;6.15;4.65;;;11.00;99.90;;;;;;4992889;28;20419;-90
2023/07/20 04:24:09;;;;;;;8.15;6.00;;;11.00;99.90;;;;;;4992945;28;20415;-88
2023/07/20 04:26:35;;;;;;;6.18;4.68;;;11.00;99.90;;;;;;4992288;28;20748;-89
2023/07/20 04:29:01;;;;;;;7.50;6.25;;;11.00;99.90;;;;;;4993332;28;20430;-89
2023/07/20 04:31:26;;;;;;;8.13;6.30;;;10.90;99.90;;;;;;5008655;28;20905;-89
2023/07/20 04:33:52;;;;;;;9.27;6.30;;;11.00;99.90;;;;;;4992862;28;20415;-91
2023/07/20 04:36:19;;;;;;;8.07;7.03;;;11.30;99.90;;;;;;4992425;28;20856;-88
2023/07/20 04:38:48;;;;;;;8.20;6.88;;;11.10;99.90;;;;;;4992882;28;20597;-89
2023/07/20 04:41:14;;;;;;;6.80;6.03;;;11.20;99.90;;;;;;4992582;28;20422;-89
2023/07/20 04:43:44;;;;;;;6.72;6.00;;;11.20;99.90;;;;;;4992489;28;20754;-91
2023/07/20 04:46:10;;;;;;;9.47;7.03;;;11.60;99.90;;;;;;5009137;28;20423;-88
2023/07/20 04:48:36;;;;;;;8.25;6.13;;;11.60;99.90;;;;;;4992162;28;20422;-90
2023/07/20 04:51:03;;;;;;;10.18;8.52;;;11.40;99.90;;;;;;4992530;28;20422;-88
2023/07/20 04:53:28;;;;;;;8.55;7.50;;;11.50;99.90;;;;;;4994611;28;20421;-88
2023/07/20 04:55:54;;;;;;;13.18;8.95;;;12.00;99.90;;;;;;4995915;28;20411;-90
2023/07/20 04:58:21;;;;;;;12.48;10.10;;;11.80;99.90;;;;;;4995691;28;20441;-90
2023/07/20 05:00:48;;;;;;;12.85;9.82;;;12.00;99.90;;;;;;4995875;28;20411;-89
2023/07/20 05:03:14;;;;;;;11.50;10.30;;;12.60;99.90;;;;;;4997077;28;20826;-88
2023/07/20 05:05:40;;;;;;;15.07;12.47;;;11.80;99.90;;;;;;4994105;28;20450;-91
2023/07/20 05:08:06;;;;;;;15.85;10.48;;;12.60;99.90;;;;;;4996330;28;20505;-91
2023/07/20 05:10:32;;;;;;;14.25;10.90;;;12.80;99.90;;;;;;4995092;28;20431;-90
2023/07/20 05:12:58;;;;;;;13.65;10.95;;;12.90;99.90;;;;;;4996266;28;20415;-91
2023/07/20 05:15:24;;;;;;;11.93;10.53;;;13.10;99.90;;;;;;4995359;28;20984;-89
2023/07/20 05:17:50;;;;;;;10.15;9.20;;;13.30;99.90;;;;;;4995549;28;20435;-91
2023/07/20 05:20:16;;;;;;;12.43;9.73;;;13.70;99.90;;;;;;4988919;28;20429;-91
2023/07/20 05:22:43;;;;;;;13.73;10.53;;;13.60;99.90;;;;;;4993939;28;21126;-91
2023/07/20 05:25:10;;;;;;;14.00;10.73;;;13.80;99.90;;;;;;4995196;28;20411;-91
2023/07/20 05:27:39;;;;;;;11.60;9.70;;;14.80;99.90;;;;;;4994026;28;20607;-93
2023/07/20 05:30:07;;;;;;;11.73;9.95;;;14.30;99.90;;;;;;4995884;28;20522;-93
2023/07/20 05:32:33;;;;;;;10.35;9.18;;;14.30;99.90;;;;;;4994868;28;20406;-92
2023/07/20 05:34:59;;;;;;;13.25;8.70;;;14.80;99.90;;;;;;4995490;28;20447;-90
2023/07/20 05:37:24;;;;;;;11.18;8.88;;;14.60;99.90;;;;;;4995122;28;20485;-91
2023/07/20 05:39:50;;;;;;;8.82;7.80;;;15.00;99.90;;;;;;4995083;28;20403;-91
2023/07/20 05:42:16;;;;;;;9.85;8.02;;;14.80;99.90;;;;;;4995959;28;20411;-91
2023/07/20 05:44:42;;;;;;;7.13;6.50;;;15.30;99.90;;;;;;4994684;28;20813;-90
2023/07/20 05:47:08;;;;;;;6.70;6.07;;;14.90;99.90;;;;;;4995803;28;20921;-91
2023/07/20 05:49:35;;;;;;;8.13;6.30;;;15.20;99.90;;;;;;5011082;28;20468;-90
2023/07/20 05:52:00;;;;;;;89.03;8.95;;;15.60;99.90;;;;;;4995538;28;20418;-91
2023/07/20 05:54:27;;;;;;;6.38;4.68;;;15.40;99.90;;;;;;4995422;28;20438;-91
2023/07/20 05:56:54;;;;;;;4.38;2.50;;;15.50;99.90;;;;;;4993317;28;20439;-92
2023/07/20 05:59:19;;;;;;;10.43;3.38;;;15.70;99.90;;;;;;4978318;28;20426;-91
2023/07/20 06:01:46;;;;;;;8.07;2.85;;;15.70;99.90;;;;;;4994403;28;20411;-90
2023/07/20 06:04:12;;;;;;;4.38;1.70;;;15.80;99.90;;;;;;4994581;28;20460;-91
2023/07/20 06:06:38;;;;;;;86.43;9.73;;;15.90;99.90;;;;;;4994176;28;20403;-92
2023/07/20 06:09:05;;;;;;;75.13;6.50;;;15.90;99.90;;;;;;4995138;28;20399;-92
2023/07/20 06:11:31;;;;;;;69.15;5.13;;;16.00;99.90;;;;;;4994220;28;20482;-91
2023/07/20 06:13:57;;;;;;;27.20;3.60;;;16.10;99.90;;;;;;4994430;28;20479;-90
2023/07/20 06:16:23;;;;;;;3.70;1.30;;;16.10;99.90;;;;;;4994336;28;20570;-91
2023/07/20 06:18:49;;;;;;;12.37;1.57;;;16.20;99.90;;;;;;5011114;28;20457;-90
2023/07/20 06:21:15;;;;;;;2.78;0.90;;;16.60;99.90;;;;;;4995222;28;20399;-91
2023/07/20 06:23:41;;;;;;;4.40;1.13;;;16.60;99.90;;;;;;4994172;28;20473;-93
2023/07/20 06:26:07;;;;;;;3.70;1.27;;;16.40;99.90;;;;;;4995226;28;20984;-90
2023/07/20 06:28:33;;;;;;;2.75;0.70;;;16.50;99.90;;;;;;5010183;28;20507;-91
2023/07/20 06:31:00;;;;;;;3.00;1.20;;;16.60;99.90;;;;;;4994760;28;20495;-92
2023/07/20 06:33:26;;;;;;;3.72;0.75;;;16.80;99.90;;;;;;4994227;28;20403;-91
2023/07/20 06:35:52;;;;;;;2.93;0.90;;;16.90;99.90;;;;;;4994795;28;20960;-90
2023/07/20 06:38:18;;;;;;;3.40;0.70;;;17.00;99.90;;;;;;4994352;28;20514;-89
2023/07/20 06:40:46;;;;;;;4.40;1.00;;;17.20;99.90;;;;;;4993791;28;20406;-91
2023/07/20 06:43:12;;;;;;;3.30;0.65;;;17.40;99.90;;;;;;4995338;28;20447;-93
2023/07/20 06:45:38;;;;;;;2.30;0.60;;;17.30;99.90;;;;;;4993882;28;20953;-91
2023/07/20 06:48:04;;;;;;;3.20;0.70;;;17.10;99.90;;;;;;4994955;28;20477;-91
2023/07/20 06:50:30;;;;;;;11.80;2.47;;;17.20;99.90;;;;;;4994083;28;20407;-92
2023/07/20 06:52:55;;;;;;;18.05;2.60;;;17.60;99.90;;;;;;4994829;28;21255;-92
2023/07/20 06:55:21;;;;;;;17.15;2.40;;;17.70;99.90;;;;;;4993540;28;20434;-91
2023/07/20 06:57:47;;;;;;;4.20;0.60;;;17.50;99.90;;;;;;4993522;28;20775;-93
2023/07/20 07:00:13;;;;;;;44.85;6.05;;;18.00;99.90;;;;;;4994938;28;20445;-92
2023/07/20 07:02:39;;;;;;;123.68;9.77;;;17.70;99.90;;;;;;4993918;28;20466;-92
2023/07/20 07:05:06;;;;;;;121.50;17.03;;;17.90;99.90;;;;;;4994793;28;20438;-92
2023/07/20 07:07:32;;;;;;;2.22;0.75;;;17.90;99.90;;;;;;4994003;28;20881;-92
2023/07/20 07:09:58;;;;;;;139.63;13.48;;;18.20;99.90;;;;;;4994074;28;20415;-92
2023/07/20 07:12:24;;;;;;;28.98;4.13;;;18.10;99.90;;;;;;4993205;28;20454;-93
2023/07/20 07:14:50;;;;;;;3.93;1.53;;;18.60;99.90;;;;;;4993479;28;20407;-92
2023/07/20 07:17:15;;;;;;;5.50;2.03;;;18.90;99.90;;;;;;4993948;28;20450;-92
2023/07/20 07:19:42;;;;;;;3.80;1.37;;;18.90;99.90;;;;;;4992880;28;20486;-90
2023/07/20 07:22:07;;;;;;;3.70;2.33;;;18.80;99.90;;;;;;4994575;28;20454;-92
2023/07/20 07:24:34;;;;;;;4.40;1.35;;;18.70;99.90;;;;;;4993142;28;20403;-91
2023/07/20 07:27:03;;;;;;;4.82;1.67;;;19.00;99.90;;;;;;4994389;28;20404;-91
2023/07/20 07:29:29;;;;;;;4.00;1.23;;;19.00;99.90;;;;;;4993331;28;20454;-92
2023/07/20 07:31:55;;;;;;;3.20;1.27;;;19.10;99.90;;;;;;4994012;28;20458;-92
2023/07/20 07:34:21;;;;;;;3.38;1.33;;;19.10;99.90;;;;;;4994514;28;20411;-91
2023/07/20 07:36:47;;;;;;;4.80;1.80;;;19.50;99.90;;;;;;4993641;28;20933;-92
2023/07/20 07:39:12;;;;;;;3.97;1.80;;;19.60;99.90;;;;;;4994639;28;20750;-92
2023/07/20 07:41:38;;;;;;;2.75;0.95;;;19.10;99.90;;;;;;4993733;28;20403;-92
2023/07/20 07:44:04;;;;;;;3.47;1.10;;;19.10;99.90;;;;;;4994326;28;20407;-92
2023/07/20 07:46:30;;;;;;;3.27;1.10;;;18.70;99.90;;;;;;4993574;28;20906;-92
2023/07/20 07:48:56;;;;;;;5.93;1.35;;;18.20;99.90;;;;;;4994355;28;20453;-91
2023/07/20 07:51:21;;;;;;;5.00;1.23;;;17.80;99.90;;;;;;4993784;28;20899;-91
2023/07/20 07:53:48;;;;;;;3.40;0.98;;;17.50;99.90;;;;;;4993571;28;20407;-91
2023/07/20 07:56:14;;;;;;;4.15;0.88;;;17.80;99.90;;;;;;4994319;28;20411;-91
2023/07/20 07:58:40;;;;;;;4.70;1.00;;;18.50;99.90;;;;;;4992952;28;20439;-91
2023/07/20 08:01:06;;;;;;;5.07;1.00;;;18.50;99.90;;;;;;4994346;28;20439;-91
2023/07/20 08:03:31;;;;;;;3.92;0.80;;;18.90;99.90;;;;;;4992836;28;20399;-91
2023/07/20 08:05:59;;;;;;;5.20;0.90;;;19.50;99.90;;;;;;4993635;28;20805;-89
2023/07/20 08:08:25;;;;;;;3.63;0.98;;;19.50;99.90;;;;;;4993445;28;20407;-92
2023/07/20 08:10:55;;;;;;;5.20;1.00;;;20.00;99.90;;;;;;4993400;28;20503;-91
2023/07/20 08:13:20;;;;;;;4.45;0.75;;;20.10;99.90;;;;;;4994022;28;20407;-91
2023/07/20 08:15:53;;;;;;;3.85;0.70;;;19.70;99.90;;;;;;4993101;28;20477;-90
2023/07/20 08:18:19;;;;;;;3.30;0.80;;;19.10;99.90;;;;;;4994056;28;20427;-90
2023/07/20 08:20:45;;;;;;;3.05;0.50;;;18.50;99.90;;;;;;4993123;28;20461;-91
2023/07/20 08:23:11;;;;;;;4.00;0.80;;;18.30;99.90;;;;;;4993738;28;20477;-91
2023/07/20 08:25:43;;;;;;;3.72;0.50;;;18.30;99.90;;;;;;4993608;28;20502;-91
2023/07/20 08:28:10;;;;;;;2.07;0.50;;;18.90;99.90;;;;;;4995396;28;20447;-91
2023/07/20 08:30:47;;;;;;;3.05;0.50;;;19.30;99.90;;;;;;4997549;28;20435;-91
2023/07/20 08:33:14;;;;;;;3.20;0.40;;;19.40;99.90;;;;;;4996989;28;20415;-91
2023/07/20 08:35:40;;;;;;;2.65;0.35;;;19.40;97.60;;;;;;4997602;28;20399;-91
2023/07/20 08:38:07;;;;;;;2.23;0.30;;;19.40;93.70;;;;;;4996850;28;20514;-90
2023/07/20 08:40:34;;;;;;;2.37;0.23;;;19.00;96.70;;;;;;4997792;28;20415;-91
2023/07/20 08:43:00;;;;;;;2.25;0.28;;;18.90;93.70;;;;;;4996516;28;20458;-90
2023/07/20 08:45:29;;;;;;;1.63;0.20;;;18.90;97.80;;;;;;4997061;28;20406;-91
2023/07/20 08:47:57;;;;;;;2.10;0.20;;;19.30;99.90;;;;;;4996633;28;20586;-89
2023/07/20 08:50:26;;;;;;;1.83;0.20;;;19.70;91.40;;;;;;4995969;28;20395;-90
2023/07/20 08:52:53;;;;;;;1.88;0.20;;;20.30;93.40;;;;;;4997403;28;20403;-90
2023/07/20 08:55:22;;;;;;;1.88;0.20;;;20.20;90.60;;;;;;5011600;28;20425;-93
2023/07/20 08:57:50;;;;;;;1.50;0.20;;;20.30;86.60;;;;;;4996784;28;20437;-92
2023/07/20 09:00:19;;;;;;;1.60;0.20;;;20.30;93.00;;;;;;4996556;28;20399;-91
2023/07/20 09:02:45;;;;;;;2.60;0.25;;;20.10;92.10;;;;;;4997055;28;20497;-92
2023/07/20 09:05:13;;;;;;;1.80;0.20;;;20.10;90.80;;;;;;4997281;28;20425;-90
2023/07/20 09:07:40;;;;;;;1.25;0.20;;;20.20;75.40;;;;;;4996032;28;20431;-92
2023/07/20 09:10:10;;;;;;;1.43;0.30;;;20.20;82.10;;;;;;4997347;28;20454;-92
2023/07/20 09:12:40;;;;;;;2.70;0.28;;;20.10;88.40;;;;;;4995578;28;20402;-89
2023/07/20 09:15:07;;;;;;;1.37;0.23;;;20.10;83.60;;;;;;4992181;28;20405;-93
2023/07/20 09:17:33;;;;;;;1.45;0.20;;;20.20;89.90;;;;;;4975806;28;20458;-93
2023/07/20 09:20:10;;;;;;;1.58;0.30;;;20.20;80.50;;;;;;4976104;28;20463;-94
2023/07/20 09:22:40;;;;;;;2.25;0.30;;;20.00;81.10;;;;;;4976742;28;20409;-91
2023/07/20 09:25:10;;;;;;;2.40;0.30;;;20.60;79.70;;;;;;4992385;28;21005;-91
2023/07/20 09:27:42;;;;;;;2.63;0.30;;;20.50;79.50;;;;;;4976118;28;20409;-88
2023/07/20 09:30:09;;;;;;;1.95;0.40;;;20.40;70.80;;;;;;4995841;28;20405;-88
2023/07/20 09:32:48;;;;;;;2.50;0.40;;;20.30;83.00;;;;;;4985422;28;20434;-88
2023/07/20 09:35:15;;;;;;;2.70;0.30;;;19.90;90.40;;;;;;4986135;28;20837;-93
2023/07/20 09:37:47;;;;;;;2.17;0.30;;;20.40;81.30;;;;;;4995186;28;20438;-91
2023/07/20 09:40:16;;;;;;;2.95;0.30;;;20.60;82.20;;;;;;4995166;28;20941;-90
2023/07/20 09:42:42;;;;;;;2.50;0.30;;;21.10;99.90;;;;;;4994904;28;20494;-88
2023/07/20 09:45:08;;;;;;;1.50;0.22;;;21.60;72.50;;;;;;4995854;28;20418;-90
2023/07/20 09:47:37;;;;;;;2.72;0.40;;;21.70;64.90;;;;;;5009970;28;20407;-88
2023/07/20 09:50:04;;;;;;;2.13;0.30;;;21.40;66.70;;;;;;5010515;28;20414;-86
2023/07/20 09:52:30;;;;;;;3.93;0.30;;;21.30;80.60;;;;;;5008868;28;20498;-87
2023/07/20 09:54:57;;;;;;;1.80;0.32;;;21.30;70.30;;;;;;5009694;28;20407;-89
2023/07/20 09:57:23;;;;;;;1.80;0.30;;;21.70;83.20;;;;;;5010829;28;20798;-88
2023/07/20 09:59:49;;;;;;;2.17;0.30;;;21.70;71.60;;;;;;4994890;28;20422;-93
2023/07/20 10:02:25;;;;;;;2.93;0.40;;;22.10;62.30;;;;;;4995189;28;20902;-89
2023/07/20 10:04:53;;;;;;;2.50;0.30;;;22.50;65.70;;;;;;5009314;28;20490;-88
2023/07/20 10:07:22;;;;;;;2.58;0.40;;;22.70;61.90;;;;;;5010094;28;20790;-87
2023/07/20 10:09:50;;;;;;;1.97;0.30;;;22.70;66.20;;;;;;5009231;28;20422;-88
2023/07/20 10:12:16;;;;;;;2.55;0.30;;;22.60;63.60;;;;;;4993192;28;20408;-87
2023/07/20 10:14:53;;;;;;;2.30;0.30;;;22.60;65.70;;;;;;5010286;28;20419;-87
2023/07/20 10:17:20;;;;;;;1.58;0.30;;;22.90;63.20;;;;;;5008355;28;20952;-88
2023/07/20 10:19:54;;;;;;;1.83;0.30;;;22.90;56.80;;;;;;4993735;28;20554;-87
2023/07/20 10:22:29;;;;;;;2.45;0.30;;;23.30;58.50;;;;;;5009373;28;20762;-89
2023/07/20 10:24:58;;;;;;;2.10;0.40;;;23.50;61.30;;;;;;4993519;28;20399;-88
2023/07/20 10:27:23;;;;;;;2.00;0.40;;;23.70;57.30;;;;;;4993379;28;20410;-90
2023/07/20 10:29:51;;;;;;;1.90;0.60;;;23.70;64.70;;;;;;4992600;28;20403;-89
2023/07/20 10:32:17;;;;;;;2.30;0.40;;;23.80;59.50;;;;;;4993398;28;20412;-89
2023/07/20 10:34:42;;;;;;;2.70;0.30;;;24.00;57.70;;;;;;5008499;28;20417;-89
2023/07/20 10:37:08;;;;;;;2.83;0.60;;;24.50;55.90;;;;;;4993488;28;20427;-89
2023/07/20 10:39:34;;;;;;;2.05;0.20;;;24.70;56.50;;;;;;5008763;28;20434;-90
2023/07/20 10:42:07;;;;;;;2.38;0.30;;;24.90;55.90;;;;;;5009424;28;20407;-90
2023/07/20 10:44:33;;;;;;;1.20;0.30;;;24.10;53.50;;;;;;5009516;28;20414;-88
2023/07/20 10:47:08;;;;;;;2.33;0.30;;;23.70;53.70;;;;;;5009357;28;20410;-89
2023/07/20 10:49:35;;;;;;;1.50;0.30;;;23.70;58.30;;;;;;4991171;28;20517;-91
2023/07/20 10:52:05;;;;;;;2.53;0.30;;;24.10;57.00;;;;;;4989306;28;20408;-90
2023/07/20 10:54:31;;;;;;;2.00;0.27;;;24.50;52.30;;;;;;4990110;28;20440;-88
2023/07/20 10:57:24;;;;;;;2.08;0.40;;;25.00;55.10;;;;;;5004952;28;20467;-88
2023/07/20 10:59:50;;;;;;;1.60;0.30;;;25.10;53.50;;;;;;4988704;28;20876;-88
2023/07/20 11:02:19;;;;;;;1.52;0.40;;;25.00;49.30;;;;;;5005590;28;20483;-89
2023/07/20 11:04:47;;;;;;;1.73;0.30;;;24.50;48.90;;;;;;4988761;28;20428;-88
2023/07/20 11:07:17;;;;;;;2.20;0.40;;;23.90;51.30;;;;;;4989930;28;20414;-88
2023/07/20 11:09:43;;;;;;;1.55;0.20;;;23.70;51.60;;;;;;5005329;28;20435;-88
2023/07/20 11:12:14;;;;;;;2.25;0.32;;;23.60;57.60;;;;;;5005973;28;20409;-90
2023/07/20 11:14:53;;;;;;;1.42;0.30;;;24.00;56.60;;;;;;4988848;28;20409;-88
2023/07/20 11:17:22;;;;;;;1.77;0.30;;;24.30;52.50;;;;;;5005039;28;20433;-88
2023/07/20 11:19:56;;;;;;;2.15;0.30;;;24.80;52.20;;;;;;5005912;28;20969;-89
2023/07/20 11:22:22;;;;;;;1.95;0.30;;;25.60;50.10;;;;;;5004888;28;20913;-88
2023/07/20 11:24:49;;;;;;;2.30;0.30;;;25.80;45.80;;;;;;5006659;28;20489;-88
2023/07/20 11:27:15;;;;;;;1.52;0.30;;;25.50;49.10;;;;;;5005233;28;20412;-90
2023/07/20 11:29:41;;;;;;;2.10;0.30;;;24.80;48.10;;;;;;4989157;28;20409;-87
2023/07/20 11:32:07;;;;;;;2.77;0.40;;;24.20;49.00;;;;;;4988656;28;21146;-88
2023/07/20 11:34:34;;;;;;;1.38;0.30;;;23.40;51.30;;;;;;5004963;28;20920;-88
2023/07/20 11:37:00;;;;;;;2.00;0.30;;;22.60;53.00;;;;;;4992320;28;20508;-91
2023/07/20 11:39:26;;;;;;;2.25;0.50;;;22.40;55.60;;;;;;4992030;28;20406;-87
2023/07/20 11:41:56;;;;;;;2.17;0.30;;;22.00;69.70;;;;;;4993074;28;20430;-88
2023/07/20 11:44:26;;;;;;;3.55;0.60;;;21.50;66.70;;;;;;4992359;28;20823;-88
2023/07/20 11:47:12;;;;;;;1.73;0.38;;;21.20;70.10;;;;;;4993796;28;20414;-92
2023/07/20 11:49:43;;;;;;;2.87;0.50;;;20.80;89.20;;;;;;4993870;28;20450;-91
2023/07/20 11:52:11;;;;;;;2.05;0.40;;;21.20;75.20;;;;;;4993306;28;20414;-90
2023/07/20 11:54:40;;;;;;;2.08;0.50;;;21.40;75.80;;;;;;4994453;28;20423;-90
2023/07/20 11:57:07;;;;;;;3.13;0.40;;;21.30;73.30;;;;;;5009212;28;20449;-90
2023/07/20 11:59:33;;;;;;;4.95;0.77;;;21.70;73.80;;;;;;4993619;28;20407;-90
2023/07/20 12:02:02;;;;;;;1.85;0.40;;;21.90;69.90;;;;;;4992088;28;20516;-91
2023/07/20 12:04:28;;;;;;;1.70;0.40;;;22.00;66.00;;;;;;4993399;28;20415;-88
2023/07/20 12:06:57;;;;;;;1.98;0.50;;;22.10;65.70;;;;;;4992984;28;20946;-89
2023/07/20 12:09:23;;;;;;;1.80;0.30;;;21.90;71.00;;;;;;4991643;28;20465;-91
2023/07/20 12:11:50;;;;;;;1.13;0.20;;;21.70;69.40;;;;;;4992279;28;21079;-87
2023/07/20 12:14:16;;;;;;;1.73;0.40;;;21.50;67.40;;;;;;5006862;28;20465;-87
2023/07/20 12:16:42;;;;;;;2.45;0.32;;;21.30;62.20;;;;;;5008258;28;20434;-88
2023/07/20 12:19:10;;;;;;;2.17;0.43;;;21.20;64.70;;;;;;5025031;28;20417;-88
2023/07/20 12:21:38;;;;;;;1.85;0.40;;;21.00;63.30;;;;;;4992847;28;20756;-89
2023/07/20 12:24:04;;;;;;;2.10;0.50;;;20.90;80.50;;;;;;4991874;28;20445;-89
2023/07/20 12:26:31;;;;;;;2.30;0.40;;;21.00;87.70;;;;;;5008598;28;20469;-90
2023/07/20 12:28:56;;;;;;;3.00;0.40;;;21.30;76.30;;;;;;5008672;28;20403;-89
2023/07/20 12:31:24;;;;;;;1.98;0.50;;;21.60;69.10;;;;;;4990365;28;20473;-87
2023/07/20 12:33:51;;;;;;;3.05;0.70;;;21.30;61.40;;;;;;5007610;28;20414;-86
2023/07/20 12:36:16;;;;;;;1.80;0.40;;;21.10;61.70;;;;;;5007221;28;20426;-87
2023/07/20 12:38:42;;;;;;;3.00;0.60;;;21.00;62.20;;;;;;5007743;28;20926;-89
2023/07/20 12:41:14;;;;;;;2.28;0.50;;;20.90;72.80;;;;;;4992027;28;20898;-89
2023/07/20 12:43:41;;;;;;;2.40;0.50;;;21.20;85.70;;;;;;4992576;28;20414;-91
2023/07/20 12:46:07;;;;;;;3.00;0.50;;;21.40;81.20;;;;;;4993539;28;20746;-92